Time;durP1;ratioP1;P1;durP2;ratioP2;P2;SDS_P1;SDS_P2;PMS_P1;PMS_P2;Temp;Humidity;BMP_temperature;BMP_pressure;BME280_temperature;BME280_humidity;BME280_pressure;Samples;Min_cycle;Max_cycle;Signal;HPM_P1;HPM_P2
2023/11/07 00:01:33;;;;;;;3.53;0.70;;;;;;;7.90;100.00;97783.94;6101086;19;20504;-74
2023/11/07 00:03:33;;;;;;;0.70;0.65;;;;;;;7.88;100.00;97787.09;6100415;19;20041;-74
2023/11/07 00:05:34;;;;;;;1.02;0.93;;;;;;;7.87;100.00;97791.00;6099453;19;20028;-74
2023/11/07 00:07:36;;;;;;;1.92;1.00;;;;;;;7.87;100.00;97793.75;6100275;19;20027;-74
2023/11/07 00:09:36;;;;;;;0.82;0.80;;;;;;;7.87;100.00;97793.75;6100464;19;20049;-74
2023/11/07 00:11:39;;;;;;;0.70;0.70;;;;;;;7.85;100.00;97798.81;6100136;19;20009;-74
2023/11/07 00:13:40;;;;;;;1.35;0.85;;;;;;;7.95;100.00;97796.59;6100328;19;20016;-74
2023/11/07 00:15:41;;;;;;;1.08;0.73;;;;;;;7.89;100.00;97801.66;6098454;19;20471;-74
2023/11/07 00:17:42;;;;;;;1.17;0.80;;;;;;;7.92;100.00;97800.09;6100464;19;20010;-74
2023/11/07 00:19:42;;;;;;;2.45;0.80;;;;;;;7.89;100.00;97801.66;6100006;19;20006;-74
2023/11/07 00:21:43;;;;;;;1.73;0.90;;;;;;;7.85;100.00;97812.59;6099939;19;20006;-74
2023/11/07 00:23:43;;;;;;;0.85;0.80;;;;;;;7.78;100.00;97812.53;6098746;19;20653;-74
2023/11/07 00:25:43;;;;;;;2.08;0.90;;;;;;;7.78;100.00;97809.78;6098194;19;20431;-74
2023/11/07 00:27:44;;;;;;;0.95;0.77;;;;;;;7.80;100.00;97817.66;6092497;19;20459;-74
2023/11/07 00:29:46;;;;;;;2.72;0.90;;;;;;;7.74;100.00;97817.19;6098050;19;20380;-74
2023/11/07 00:31:46;;;;;;;2.05;0.90;;;;;;;7.79;100.00;97818.84;6099198;19;20017;-74
2023/11/07 00:33:48;;;;;;;1.25;0.90;;;;;;;7.77;100.00;97812.91;6098928;19;20237;-74
2023/11/07 00:35:48;;;;;;;0.63;0.63;;;;;;;7.77;100.00;97810.94;6099374;19;20031;-74
2023/11/07 00:37:50;;;;;;;1.90;0.80;;;;;;;7.78;100.00;97823.56;6097715;19;20014;-74
2023/11/07 00:39:50;;;;;;;1.20;0.98;;;;;;;7.77;100.00;97826.66;6099212;19;20025;-74
2023/11/07 00:41:50;;;;;;;1.10;1.00;;;;;;;7.73;100.00;97829.38;6099822;19;20282;-74
2023/11/07 00:43:51;;;;;;;2.67;1.00;;;;;;;7.74;100.00;97830.19;6099420;19;20482;-74
2023/11/07 00:45:52;;;;;;;1.95;0.80;;;;;;;7.73;100.00;97834.91;6098022;19;20416;-74
2023/11/07 00:47:52;;;;;;;0.60;0.60;;;;;;;7.74;100.00;97836.47;6100276;19;20022;-74
2023/11/07 00:49:53;;;;;;;1.10;1.00;;;;;;;7.70;100.00;97826.59;6099863;19;20006;-74
2023/11/07 00:51:53;;;;;;;1.25;0.80;;;;;;;7.65;100.00;97827.72;6099157;19;20017;-74
2023/11/07 00:53:54;;;;;;;0.93;0.70;;;;;;;7.57;100.00;97828.78;6099083;19;20542;-74
2023/11/07 00:55:54;;;;;;;1.98;0.90;;;;;;;7.58;100.00;97833.13;6097473;19;20011;-74
2023/11/07 00:57:55;;;;;;;0.95;0.80;;;;;;;7.56;100.00;97830.75;6102396;19;20345;-74
2023/11/07 00:59:55;;;;;;;1.77;0.73;;;;;;;7.57;100.00;97834.28;6104672;19;20459;-74
2023/11/07 01:01:55;;;;;;;4.20;1.00;;;;;;;7.56;100.00;97835.47;6104603;19;20258;-74
2023/11/07 01:03:57;;;;;;;0.80;0.80;;;;;;;7.53;100.00;97837.00;6104435;19;20350;-73
2023/11/07 01:05:57;;;;;;;1.10;1.00;;;;;;;7.51;100.00;97841.28;6104201;19;21043;-74
2023/11/07 01:07:58;;;;;;;0.90;0.90;;;;;;;7.47;100.00;97832.19;6104152;19;20101;-74
2023/11/07 01:09:58;;;;;;;1.00;0.90;;;;;;;7.42;100.00;97843.53;6105012;19;20285;-74
2023/11/07 01:11:58;;;;;;;3.65;0.90;;;;;;;7.41;100.00;97844.69;6103922;19;20005;-74
2023/11/07 01:13:59;;;;;;;2.65;1.33;;;;;;;7.40;100.00;97835.66;6103285;19;20098;-74
2023/11/07 01:15:59;;;;;;;0.80;0.80;;;;;;;7.43;100.00;97842.34;6104249;19;20118;-74
2023/11/07 01:18:00;;;;;;;0.95;0.82;;;;;;;7.45;100.00;97845.56;6103327;19;20270;-74
2023/11/07 01:20:01;;;;;;;1.52;1.00;;;;;;;7.44;100.00;97852.19;6103949;19;20347;-74
2023/11/07 01:22:01;;;;;;;1.85;1.00;;;;;;;7.45;100.00;97845.56;6103787;19;20010;-74
2023/11/07 01:24:03;;;;;;;1.85;1.08;;;;;;;7.45;100.00;97851.06;6103425;19;20006;-74
2023/11/07 01:26:05;;;;;;;4.50;1.20;;;;;;;7.44;100.00;97841.19;6102911;19;20011;-74
2023/11/07 01:28:05;;;;;;;2.80;1.20;;;;;;;7.38;100.00;97842.69;6100716;19;20010;-74
2023/11/07 01:30:07;;;;;;;2.40;1.17;;;;;;;7.40;100.00;97840.34;6096709;19;20007;-74
2023/11/07 01:32:07;;;;;;;1.80;1.30;;;;;;;7.41;100.00;97848.25;6095950;19;20002;-74
2023/11/07 01:34:08;;;;;;;5.10;1.30;;;;;;;7.39;100.00;97847.03;6096519;19;20026;-74
2023/11/07 01:36:10;;;;;;;1.92;1.10;;;;;;;7.39;100.00;97852.53;6095544;19;20007;-74
2023/11/07 01:38:10;;;;;;;2.20;1.10;;;;;;;7.33;100.00;97849.31;6097391;19;20136;-74
2023/11/07 01:40:12;;;;;;;1.42;1.00;;;;;;;7.31;100.00;97862.66;6097227;19;20560;-74
2023/11/07 01:42:12;;;;;;;2.67;1.00;;;;;;;7.29;100.00;97853.97;6095506;19;20494;-74
2023/11/07 01:44:13;;;;;;;2.97;1.17;;;;;;;7.30;100.00;97861.84;6097559;19;19998;-74
2023/11/07 01:46:14;;;;;;;2.08;1.00;;;;;;;7.26;100.00;97861.00;6096150;19;20299;-74
2023/11/07 01:48:21;;;;;;;1.40;0.98;;;;;;;7.22;100.00;97856.63;6096260;19;20007;-74
2023/11/07 01:50:21;;;;;;;1.92;0.90;;;;;;;7.27;100.00;97856.28;6096082;19;20054;-74
2023/11/07 01:52:22;;;;;;;0.95;0.90;;;;;;;7.23;100.00;97847.19;6095795;19;20002;-74
2023/11/07 01:54:25;;;;;;;2.70;1.17;;;;;;;7.20;100.00;97856.19;6096395;19;20022;-74
2023/11/07 01:56:27;;;;;;;2.72;1.08;;;;;;;7.21;100.00;97858.59;6094862;19;20018;-74
2023/11/07 01:58:27;;;;;;;2.25;1.17;;;;;;;7.22;100.00;97851.91;6096956;19;20022;-75
2023/11/07 02:00:29;;;;;;;2.70;1.00;;;;;;;7.23;100.00;97861.75;6096474;19;20015;-74
2023/11/07 02:02:30;;;;;;;2.17;0.95;;;;;;;7.23;100.00;97866.47;6096766;19;20014;-74
2023/11/07 02:04:30;;;;;;;1.20;1.10;;;;;;;7.19;100.00;97865.59;6096351;19;20018;-74
2023/11/07 02:06:30;;;;;;;2.55;1.30;;;;;;;7.20;100.00;97864.44;6093213;19;20026;-74
2023/11/07 02:08:31;;;;;;;1.58;1.33;;;;;;;7.19;100.00;97871.09;6095659;19;20331;-74
2023/11/07 02:10:31;;;;;;;1.15;1.05;;;;;;;7.15;100.00;97860.06;6095526;19;20848;-74
2023/11/07 02:12:33;;;;;;;1.58;1.17;;;;;;;7.17;100.00;97865.19;6096399;19;20015;-74
2023/11/07 02:14:35;;;;;;;3.28;1.05;;;;;;;7.17;100.00;97857.72;6096149;19;20013;-74
2023/11/07 02:16:35;;;;;;;2.83;1.08;;;;;;;7.22;100.00;97853.88;6095641;19;20010;-74
2023/11/07 02:18:35;;;;;;;1.08;0.85;;;;;;;7.22;100.00;97854.66;6095857;19;20078;-74
2023/11/07 02:20:39;;;;;;;1.35;1.05;;;;;;;7.18;100.00;97850.25;6095458;19;20038;-74
2023/11/07 02:22:47;;;;;;;1.42;1.10;;;;;;;7.17;100.00;97857.72;6096006;19;20534;-74
2023/11/07 02:24:47;;;;;;;1.67;1.00;;;;;;;7.13;100.00;97856.88;6094617;19;20007;-74
2023/11/07 02:26:53;;;;;;;2.60;1.17;;;;;;;7.17;100.00;97856.94;6095639;19;20849;-74
2023/11/07 02:28:53;;;;;;;1.17;0.90;;;;;;;7.17;100.00;97851.44;6098615;19;20018;-74
2023/11/07 02:30:53;;;;;;;1.67;1.10;;;;;;;7.15;100.00;97857.31;6103273;19;20011;-74
2023/11/07 02:32:54;;;;;;;1.20;0.93;;;;;;;7.13;100.00;97859.63;6101797;19;20007;-74
2023/11/07 02:34:55;;;;;;;1.63;1.08;;;;;;;7.11;100.00;97858.41;6102201;19;20493;-74
2023/11/07 02:36:56;;;;;;;3.55;1.23;;;;;;;7.05;100.00;97855.19;6103928;19;20011;-74
2023/11/07 02:38:56;;;;;;;2.58;0.90;;;;;;;7.07;100.00;97852.06;6103420;19;20010;-74
2023/11/07 02:40:56;;;;;;;1.35;1.10;;;;;;;7.13;100.00;97853.34;6102977;19;20006;-74
2023/11/07 02:43:00;;;;;;;1.25;1.00;;;;;;;7.18;100.00;97847.50;6102639;19;20447;-74
2023/11/07 02:45:00;;;;;;;1.63;0.80;;;;;;;7.20;100.00;97854.25;6101510;19;20306;-74
2023/11/07 02:47:00;;;;;;;0.95;0.90;;;;;;;7.19;100.00;97847.13;6102983;19;20455;-74
2023/11/07 02:49:01;;;;;;;2.28;1.20;;;;;;;7.16;100.00;97849.84;6104069;19;20090;-74
2023/11/07 02:51:01;;;;;;;1.17;0.82;;;;;;;7.13;100.00;97851.38;6102171;19;20089;-74
2023/11/07 02:53:01;;;;;;;1.55;0.90;;;;;;;7.11;100.00;97853.69;6101917;19;20048;-74
2023/11/07 02:55:02;;;;;;;1.65;1.10;;;;;;;7.14;100.00;97852.97;6102306;19;20465;-74
2023/11/07 02:57:03;;;;;;;1.50;1.00;;;;;;;7.13;100.00;97858.84;6100466;19;20348;-74
2023/11/07 02:59:04;;;;;;;1.60;1.10;;;;;;;7.14;100.00;97863.97;6102717;19;20432;-74
2023/11/07 03:01:04;;;;;;;1.55;1.25;;;;;;;7.10;100.00;97852.09;6102699;19;20045;-74
2023/11/07 03:03:04;;;;;;;1.58;1.00;;;;;;;7.08;100.00;97862.69;6102965;19;20011;-74
2023/11/07 03:05:07;;;;;;;4.35;1.25;;;;;;;7.12;100.00;97871.81;6101854;19;20007;-74
2023/11/07 03:07:07;;;;;;;2.47;1.20;;;;;;;7.14;100.00;97876.94;6101814;19;20010;-74
2023/11/07 03:09:07;;;;;;;1.20;1.00;;;;;;;7.20;100.00;97864.44;6102289;19;20466;-74
2023/11/07 03:11:08;;;;;;;1.42;1.10;;;;;;;7.19;100.00;97863.63;6102284;19;20019;-74
2023/11/07 03:13:08;;;;;;;1.42;1.10;;;;;;;7.19;100.00;97865.59;6102342;19;20082;-74
2023/11/07 03:15:09;;;;;;;1.75;1.20;;;;;;;7.29;100.00;97876.78;6101200;19;20007;-74
2023/11/07 03:17:09;;;;;;;1.25;1.10;;;;;;;7.24;100.00;97863.34;6101905;19;20344;-74
2023/11/07 03:19:10;;;;;;;1.17;0.93;;;;;;;7.23;100.00;97871.97;6101750;19;20010;-74
2023/11/07 03:21:10;;;;;;;1.80;0.90;;;;;;;7.19;100.00;97860.88;6100966;19;20013;-74
2023/11/07 03:23:10;;;;;;;1.85;1.10;;;;;;;7.16;100.00;97855.34;6101700;19;20015;-74
2023/11/07 03:25:10;;;;;;;1.10;1.00;;;;;;;7.08;100.00;97859.16;6100788;19;20010;-74
2023/11/07 03:27:11;;;;;;;1.02;0.93;;;;;;;7.03;100.00;97863.81;6100503;19;20040;-74
2023/11/07 03:29:12;;;;;;;2.30;1.25;;;;;;;7.00;100.00;97864.53;6102826;19;20011;-74
2023/11/07 03:31:13;;;;;;;3.03;1.20;;;;;;;7.03;100.00;97857.50;6102333;19;20010;-74
2023/11/07 03:33:17;;;;;;;2.00;1.17;;;;;;;7.04;100.00;97868.16;6101794;19;20387;-74
2023/11/07 03:35:17;;;;;;;4.72;1.40;;;;;;;7.08;100.00;97865.44;6100143;19;20024;-74
2023/11/07 03:37:18;;;;;;;3.22;1.30;;;;;;;7.13;100.00;97865.13;6102223;19;20002;-74
2023/11/07 03:39:19;;;;;;;2.83;1.20;;;;;;;7.17;100.00;97876.97;6101454;19;20014;-74
2023/11/07 03:41:22;;;;;;;2.25;1.10;;;;;;;7.16;100.00;97869.91;6102115;19;20017;-74
2023/11/07 03:43:22;;;;;;;1.33;1.15;;;;;;;7.13;100.00;97870.66;6101274;19;20014;-74
2023/11/07 03:45:22;;;;;;;3.20;1.40;;;;;;;7.13;100.00;97873.41;6100647;19;20481;-74
2023/11/07 03:47:23;;;;;;;3.25;1.90;;;;;;;7.20;100.00;97878.19;6101384;19;20035;-74
2023/11/07 03:49:23;;;;;;;2.63;1.40;;;;;;;7.21;100.00;97877.84;6101874;19;20020;-74
2023/11/07 03:51:23;;;;;;;5.00;1.30;;;;;;;7.23;100.00;97864.50;6101601;19;20014;-74
2023/11/07 03:53:23;;;;;;;3.25;1.40;;;;;;;7.24;100.00;97870.78;6100827;19;20003;-74
2023/11/07 03:55:24;;;;;;;2.33;1.40;;;;;;;7.30;100.00;97872.88;6100064;19;20335;-74
2023/11/07 03:57:25;;;;;;;2.58;1.50;;;;;;;7.28;100.00;97886.22;6099033;19;20044;-74
2023/11/07 03:59:25;;;;;;;1.73;1.10;;;;;;;7.31;100.00;97879.94;6100935;19;19999;-74
2023/11/07 04:01:36;;;;;;;3.67;1.10;;;;;;;7.31;100.00;97896.47;6100922;19;20015;-74
2023/11/07 04:03:36;;;;;;;1.40;1.25;;;;;;;7.32;100.00;97891.75;6100770;19;20361;-74
2023/11/07 04:05:37;;;;;;;2.00;1.10;;;;;;;7.34;100.00;97894.91;6099522;19;20022;-74
2023/11/07 04:07:37;;;;;;;2.45;1.33;;;;;;;7.36;100.00;97886.28;6101338;19;19999;-74
2023/11/07 04:09:40;;;;;;;2.70;1.20;;;;;;;7.35;100.00;97898.47;6100526;19;20027;-74
2023/11/07 04:11:40;;;;;;;1.65;1.13;;;;;;;7.42;100.00;97901.31;6099878;19;20002;-74
2023/11/07 04:13:42;;;;;;;2.25;1.20;;;;;;;7.44;100.00;97908.03;6101084;19;19999;-74
2023/11/07 04:15:43;;;;;;;1.27;1.10;;;;;;;7.45;100.00;97909.66;6100342;19;20343;-73
2023/11/07 04:17:46;;;;;;;1.70;1.25;;;;;;;7.48;100.00;97910.84;6101084;19;20035;-74
2023/11/07 04:19:47;;;;;;;3.17;1.20;;;;;;;7.39;100.00;97905.63;6098568;19;20007;-74
2023/11/07 04:21:47;;;;;;;5.10;1.85;;;;;;;7.34;100.00;97905.94;6097547;19;20332;-74
2023/11/07 04:23:48;;;;;;;3.15;2.25;;;;;;;7.38;100.00;97909.53;6100656;19;20007;-74
2023/11/07 04:25:50;;;;;;;1.85;1.35;;;;;;;7.45;100.00;97906.09;6098281;19;20007;-74
2023/11/07 04:27:50;;;;;;;3.30;1.40;;;;;;;7.42;100.00;97904.06;6099734;19;20006;-74
2023/11/07 04:29:50;;;;;;;1.88;1.20;;;;;;;7.41;100.00;97900.53;6099313;19;20046;-74
2023/11/07 04:31:51;;;;;;;3.35;1.40;;;;;;;7.37;100.00;97910.72;6102056;19;20018;-74
2023/11/07 04:33:51;;;;;;;2.15;1.10;;;;;;;7.33;100.00;97896.88;6105069;19;20495;-74
2023/11/07 04:35:52;;;;;;;1.83;1.27;;;;;;;7.32;100.00;97900.00;6103339;19;19999;-74
2023/11/07 04:37:55;;;;;;;2.72;1.23;;;;;;;7.30;100.00;97891.34;6105836;19;19999;-74
2023/11/07 04:39:55;;;;;;;1.92;1.30;;;;;;;7.29;100.00;97896.03;6105007;19;20010;-74
2023/11/07 04:41:55;;;;;;;2.13;1.40;;;;;;;7.31;100.00;97892.91;6103157;19;20683;-74
2023/11/07 04:43:56;;;;;;;1.70;1.00;;;;;;;7.33;100.00;97888.63;6103223;19;20006;-74
2023/11/07 04:45:56;;;;;;;2.30;0.90;;;;;;;7.38;100.00;97904.03;6103538;19;20021;-74
2023/11/07 04:47:57;;;;;;;3.08;1.42;;;;;;;7.39;100.00;97905.63;6104944;19;20010;-74
2023/11/07 04:49:59;;;;;;;2.08;1.05;;;;;;;7.35;100.00;97896.50;6105405;19;20011;-74
2023/11/07 04:51:59;;;;;;;1.88;1.15;;;;;;;7.33;100.00;97898.84;6104890;19;20714;-74
2023/11/07 04:53:59;;;;;;;2.92;1.30;;;;;;;7.36;100.00;97897.28;6105333;19;20557;-74
2023/11/07 04:56:00;;;;;;;1.33;1.05;;;;;;;7.37;100.00;97894.19;6103303;19;20007;-74
2023/11/07 04:58:01;;;;;;;1.00;0.90;;;;;;;7.36;100.00;97889.03;6104631;19;20651;-74
2023/11/07 05:00:03;;;;;;;4.60;1.35;;;;;;;7.36;100.00;97898.09;6104783;19;20469;-74
2023/11/07 05:02:06;;;;;;;3.63;2.15;;;;;;;7.39;100.00;97896.56;6103733;19;20014;-74
2023/11/07 05:04:07;;;;;;;3.90;1.27;;;;;;;7.45;100.00;97893.13;6104581;19;20007;-74
2023/11/07 05:06:08;;;;;;;1.77;1.10;;;;;;;7.47;100.00;97888.03;6102858;19;20014;-74
2023/11/07 05:08:08;;;;;;;2.13;1.10;;;;;;;7.47;100.00;97888.03;6104312;19;20026;-74
2023/11/07 05:10:12;;;;;;;3.53;1.17;;;;;;;7.50;100.00;97894.75;6103019;19;20002;-74
2023/11/07 05:12:12;;;;;;;1.40;1.20;;;;;;;7.51;100.00;97891.63;6103558;19;20038;-74
2023/11/07 05:14:12;;;;;;;2.70;1.20;;;;;;;7.49;100.00;97893.97;6104069;19;20260;-74
2023/11/07 05:16:13;;;;;;;2.67;1.45;;;;;;;7.50;100.00;97892.00;6101691;19;19995;-74
2023/11/07 05:18:14;;;;;;;1.77;1.30;;;;;;;7.52;100.00;97892.41;6102131;19;20002;-74
2023/11/07 05:20:15;;;;;;;2.20;1.57;;;;;;;7.52;100.00;97893.22;6103923;19;20030;-74
2023/11/07 05:22:15;;;;;;;2.53;1.20;;;;;;;7.59;100.00;97892.53;6101787;19;20284;-74
2023/11/07 05:24:16;;;;;;;1.55;1.25;;;;;;;7.67;100.00;97890.66;6104171;19;20498;-74
2023/11/07 05:26:16;;;;;;;4.78;1.50;;;;;;;7.62;100.00;97880.78;6101780;19;20023;-74
2023/11/07 05:28:16;;;;;;;3.95;1.25;;;;;;;7.58;100.00;97883.47;6095112;19;20017;-74
2023/11/07 05:30:17;;;;;;;2.35;1.40;;;;;;;7.64;100.00;97891.41;6101282;19;20474;-74
2023/11/07 05:32:17;;;;;;;2.97;1.10;;;;;;;7.64;100.00;97892.22;6099125;19;20014;-74
2023/11/07 05:34:17;;;;;;;3.80;1.20;;;;;;;7.67;100.00;97885.16;6099501;19;20225;-74
2023/11/07 05:36:18;;;;;;;2.97;1.40;;;;;;;7.67;100.00;97882.41;6101341;19;20066;-74
2023/11/07 05:38:18;;;;;;;2.38;1.38;;;;;;;7.68;100.00;97901.28;6101956;19;20044;-74
2023/11/07 05:40:23;;;;;;;7.23;1.53;;;;;;;7.65;100.00;97896.53;6102561;19;20570;-74
2023/11/07 05:42:24;;;;;;;2.17;1.33;;;;;;;7.65;100.00;97893.78;6101618;19;20231;-74
2023/11/07 05:44:25;;;;;;;3.78;1.15;;;;;;;7.67;100.00;97902.47;6102717;19;20010;-74
2023/11/07 05:46:25;;;;;;;2.55;1.40;;;;;;;7.68;100.00;97893.03;6101982;19;20561;-74
2023/11/07 05:48:26;;;;;;;1.42;1.02;;;;;;;7.70;100.00;97898.19;6100579;19;20025;-74
2023/11/07 05:50:26;;;;;;;4.13;1.48;;;;;;;7.77;100.00;97893.53;6102204;19;20070;-74
2023/11/07 05:52:27;;;;;;;1.63;1.10;;;;;;;7.72;100.00;97902.16;6100448;19;20121;-74
2023/11/07 05:54:27;;;;;;;3.05;1.23;;;;;;;7.74;100.00;97897.06;6102812;19;20078;-74
2023/11/07 05:56:27;;;;;;;1.65;1.35;;;;;;;7.73;100.00;97909.25;6102612;19;20027;-74
2023/11/07 05:58:29;;;;;;;3.45;1.20;;;;;;;7.71;100.00;97914.34;6100618;19;20011;-74
2023/11/07 06:00:29;;;;;;;4.25;1.40;;;;;;;7.66;100.00;97911.91;6101266;19;20013;-74
2023/11/07 06:02:30;;;;;;;4.82;1.33;;;;;;;7.65;100.00;97917.78;6102919;19;20007;-74
2023/11/07 06:04:33;;;;;;;2.40;1.20;;;;;;;7.62;100.00;97918.53;6102350;19;20428;-74
2023/11/07 06:06:34;;;;;;;1.77;1.02;;;;;;;7.67;100.00;97921.75;6100935;19;20313;-74
2023/11/07 06:08:34;;;;;;;4.35;1.10;;;;;;;7.69;100.00;97921.38;6102411;19;20074;-73
2023/11/07 06:10:35;;;;;;;1.25;1.05;;;;;;;7.62;100.00;97913.81;6102754;19;20310;-74
2023/11/07 06:12:35;;;;;;;1.67;1.10;;;;;;;7.61;100.00;97912.22;6101880;19;20391;-74
2023/11/07 06:14:36;;;;;;;3.00;1.20;;;;;;;7.57;100.00;97925.16;6102178;19;20134;-74
2023/11/07 06:16:39;;;;;;;2.65;1.02;;;;;;;7.52;100.00;97917.19;6098703;19;20002;-74
2023/11/07 06:18:40;;;;;;;4.55;0.95;;;;;;;7.51;100.00;97921.13;6102218;19;20007;-74
2023/11/07 06:20:40;;;;;;;1.55;1.20;;;;;;;7.47;100.00;97929.34;6101032;19;20553;-74
2023/11/07 06:22:40;;;;;;;2.70;1.20;;;;;;;7.46;100.00;97937.97;6095768;19;20024;-74
2023/11/07 06:24:42;;;;;;;1.70;1.13;;;;;;;7.49;100.00;97940.75;6095404;19;20010;-74
2023/11/07 06:26:43;;;;;;;1.30;1.00;;;;;;;7.45;100.00;97936.38;6096985;19;20025;-74
2023/11/07 06:28:43;;;;;;;4.32;1.15;;;;;;;7.48;100.00;97930.91;6095462;19;20037;-74
2023/11/07 06:30:43;;;;;;;2.92;1.15;;;;;;;7.52;100.00;97945.50;6091254;19;20086;-74
2023/11/07 06:32:44;;;;;;;2.88;1.00;;;;;;;7.52;100.00;97944.72;6091433;19;20009;-74
2023/11/07 06:34:44;;;;;;;1.67;1.20;;;;;;;7.52;100.00;97950.22;6092841;19;20700;-74
2023/11/07 06:36:45;;;;;;;2.53;1.10;;;;;;;7.49;100.00;97948.22;6093774;19;20030;-74
2023/11/07 06:38:46;;;;;;;2.63;1.00;;;;;;;7.49;100.00;97950.97;6095505;19;20027;-74
2023/11/07 06:40:46;;;;;;;2.92;1.15;;;;;;;7.47;100.00;97953.31;6094863;19;20003;-74
2023/11/07 06:42:48;;;;;;;1.52;0.90;;;;;;;7.49;100.00;97962.78;6095241;19;20534;-74
2023/11/07 06:44:48;;;;;;;1.23;1.10;;;;;;;7.46;100.00;97958.03;6093888;19;20002;-74
2023/11/07 06:46:51;;;;;;;1.50;1.10;;;;;;;7.46;100.00;97965.50;6094913;19;20006;-74
2023/11/07 06:48:51;;;;;;;2.72;1.10;;;;;;;7.42;100.00;97954.41;6094685;19;20010;-74
2023/11/07 06:50:54;;;;;;;2.55;1.55;;;;;;;7.50;100.00;97952.56;6094905;19;20323;-74
2023/11/07 06:52:54;;;;;;;1.40;1.00;;;;;;;7.49;100.00;97962.78;6094508;19;20006;-74
2023/11/07 06:54:55;;;;;;;1.33;0.88;;;;;;;7.52;100.00;97964.78;6091808;19;20027;-74
2023/11/07 06:56:55;;;;;;;1.33;0.90;;;;;;;7.58;100.00;97968.03;6094621;19;20007;-74
2023/11/07 06:58:55;;;;;;;1.88;1.00;;;;;;;7.55;100.00;97964.06;6094847;19;20119;-74
2023/11/07 07:00:56;;;;;;;1.10;0.73;;;;;;;7.58;100.00;97968.03;6094669;19;20003;-74
2023/11/07 07:02:56;;;;;;;1.45;1.00;;;;;;;7.64;100.00;97974.00;6094276;19;21017;-74
2023/11/07 07:04:57;;;;;;;3.20;1.30;;;;;;;7.69;100.00;97971.72;6092949;19;20258;-74
2023/11/07 07:06:58;;;;;;;1.00;0.90;;;;;;;7.72;100.00;97973.75;6094778;19;20271;-74
2023/11/07 07:08:58;;;;;;;1.13;1.00;;;;;;;7.72;100.00;97975.72;6094070;19;20435;-74
2023/11/07 07:11:00;;;;;;;1.33;1.00;;;;;;;7.71;100.00;97976.88;6094660;19;20078;-74
2023/11/07 07:13:01;;;;;;;1.60;1.00;;;;;;;7.66;100.00;97968.91;6093954;19;20569;-74
2023/11/07 07:15:03;;;;;;;4.70;1.13;;;;;;;7.69;100.00;97974.47;6093645;19;20345;-74
2023/11/07 07:17:07;;;;;;;1.83;1.10;;;;;;;7.72;100.00;97971.00;6092567;19;20015;-74
2023/11/07 07:19:08;;;;;;;1.40;1.15;;;;;;;7.75;100.00;97986.75;6094349;19;20010;-74
2023/11/07 07:21:09;;;;;;;2.78;1.13;;;;;;;7.80;100.00;97971.88;6094154;19;20002;-74
2023/11/07 07:23:10;;;;;;;1.55;0.90;;;;;;;7.77;100.00;97980.88;6094647;19;20015;-74
2023/11/07 07:25:20;;;;;;;2.08;1.00;;;;;;;7.79;100.00;97976.59;6092965;19;20360;-73
2023/11/07 07:27:24;;;;;;;1.92;1.30;;;;;;;7.82;100.00;97981.34;6094617;19;20105;-74
2023/11/07 07:29:26;;;;;;;1.88;1.20;;;;;;;7.85;100.00;97988.88;6097646;19;20483;-74
2023/11/07 07:31:27;;;;;;;1.92;1.20;;;;;;;7.85;100.00;97993.59;6100469;19;20462;-74
2023/11/07 07:33:27;;;;;;;4.45;1.40;;;;;;;7.84;100.00;97980.97;6100745;19;19999;-74
2023/11/07 07:35:32;;;;;;;3.72;1.70;;;;;;;7.87;100.00;97989.31;6100009;19;20469;-74
2023/11/07 07:37:33;;;;;;;3.03;1.45;;;;;;;7.88;100.00;97992.88;6101542;19;20011;-74
2023/11/07 07:39:34;;;;;;;3.33;2.10;;;;;;;7.91;100.00;97994.06;6100833;19;20340;-74
2023/11/07 07:41:35;;;;;;;3.10;1.90;;;;;;;7.89;100.00;97989.72;6100536;19;20098;-74
2023/11/07 07:43:36;;;;;;;3.92;2.17;;;;;;;7.89;100.00;97991.69;6101279;19;20374;-74
2023/11/07 07:45:39;;;;;;;2.45;1.33;;;;;;;7.91;100.00;97994.88;6099232;19;20022;-74
2023/11/07 07:47:41;;;;;;;2.50;1.50;;;;;;;7.91;100.00;97992.09;6100163;19;19998;-74
2023/11/07 07:49:41;;;;;;;11.00;2.50;;;;;;;7.96;100.00;97991.00;6100520;19;20002;-74
2023/11/07 07:51:45;;;;;;;1.73;1.10;;;;;;;8.01;100.00;97983.19;6100821;19;20095;-74
2023/11/07 07:53:45;;;;;;;4.93;1.52;;;;;;;8.06;100.00;97988.38;6101528;19;20392;-74
2023/11/07 07:55:46;;;;;;;3.00;1.20;;;;;;;8.12;100.00;97981.38;6098064;19;20027;-74
2023/11/07 07:57:46;;;;;;;2.53;1.48;;;;;;;8.14;100.00;97990.06;6100288;19;20007;-74
2023/11/07 07:59:46;;;;;;;1.55;1.00;;;;;;;8.17;100.00;97983.81;6100286;19;20006;-74
2023/11/07 08:01:47;;;;;;;1.70;1.20;;;;;;;8.26;100.00;97999.25;6099924;19;20494;-74
2023/11/07 08:03:48;;;;;;;3.92;1.40;;;;;;;8.29;100.00;97988.31;6099417;19;20227;-74
2023/11/07 08:05:51;;;;;;;1.60;1.10;;;;;;;8.35;100.00;97991.53;6098480;19;20018;-74
2023/11/07 08:07:51;;;;;;;;;;;;;;;8.38;100.00;97986.06;6100607;19;20336;-74
2023/11/07 08:09:51;;;;;;;1.13;0.82;;;;;;;8.39;100.00;97989.63;6100141;19;19974;-74
2023/11/07 08:11:56;;;;;;;1.63;0.80;;;;;;;8.41;100.00;97990.81;6099755;19;20006;-74
2023/11/07 08:13:57;;;;;;;2.50;1.10;;;;;;;8.43;100.00;97987.69;6098934;19;20647;-74
2023/11/07 08:15:57;;;;;;;1.55;1.08;;;;;;;8.43;100.00;97984.94;6099186;19;20451;-74
2023/11/07 08:17:57;;;;;;;1.02;0.93;;;;;;;8.47;100.00;97990.50;6099643;19;20020;-74
2023/11/07 08:19:59;;;;;;;1.98;1.10;;;;;;;8.48;100.00;97992.88;6099500;19;20715;-74
2023/11/07 08:21:59;;;;;;;1.00;0.90;;;;;;;8.53;100.00;97992.56;6098038;19;20554;-74
2023/11/07 08:24:00;;;;;;;1.38;0.98;;;;;;;8.53;100.00;97987.03;6100168;19;20477;-74
2023/11/07 08:26:01;;;;;;;1.40;1.10;;;;;;;8.57;100.00;97985.09;6097889;19;20475;-74
2023/11/07 08:28:07;;;;;;;3.10;1.30;;;;;;;8.62;100.00;97986.75;6098616;19;20024;-74
2023/11/07 08:30:10;;;;;;;2.58;1.23;;;;;;;8.62;100.00;97978.47;6099401;19;20013;-74
2023/11/07 08:32:12;;;;;;;1.98;1.30;;;;;;;8.67;100.00;97984.44;6099093;19;20003;-74
2023/11/07 08:34:12;;;;;;;1.13;1.00;;;;;;;8.70;100.00;97991.16;6098915;19;20364;-74
2023/11/07 08:36:13;;;;;;;1.60;1.20;;;;;;;8.71;100.00;97981.72;6099435;19;20024;-74
2023/11/07 08:38:14;;;;;;;1.08;1.00;;;;;;;8.71;100.00;97981.72;6098557;19;20003;-74
2023/11/07 08:40:17;;;;;;;2.50;1.00;;;;;;;8.75;100.00;97990.03;6099630;19;20010;-74
2023/11/07 08:42:17;;;;;;;2.42;1.23;;;;;;;8.78;100.00;97994.81;6099724;19;20027;-74
2023/11/07 08:44:19;;;;;;;1.58;1.20;;;;;;;8.77;100.00;97979.41;6098992;19;20010;-74
2023/11/07 08:46:19;;;;;;;3.33;1.60;;;;;;;8.77;100.00;97991.25;6099734;19;20427;-74
2023/11/07 08:48:20;;;;;;;2.35;1.27;;;;;;;8.77;100.00;97974.69;6099300;19;20018;-74
2023/11/07 08:50:20;;;;;;;3.15;1.60;;;;;;;8.80;100.00;97984.97;6100377;19;19999;-74
2023/11/07 08:52:21;;;;;;;1.48;1.35;;;;;;;8.92;100.00;97992.16;6099071;19;20035;-74
2023/11/07 08:54:21;;;;;;;2.45;1.10;;;;;;;8.89;100.00;97988.22;6099902;19;19999;-74
2023/11/07 08:56:24;;;;;;;4.82;1.20;;;;;;;8.92;100.00;97992.97;6098011;19;20477;-74
2023/11/07 08:58:26;;;;;;;0.95;0.85;;;;;;;8.96;100.00;97993.03;6099607;19;20034;-74
2023/11/07 09:00:27;;;;;;;1.15;0.93;;;;;;;8.93;100.00;98000.06;6099359;19;20544;-74
2023/11/07 09:02:27;;;;;;;1.13;1.00;;;;;;;8.98;100.00;98001.69;6100153;19;20013;-74
2023/11/07 09:04:27;;;;;;;1.50;0.98;;;;;;;9.05;100.00;98001.00;6098181;19;20369;-74
2023/11/07 09:06:27;;;;;;;2.50;1.30;;;;;;;9.04;100.00;98004.91;6098783;19;20006;-74
2023/11/07 09:08:28;;;;;;;1.60;1.00;;;;;;;9.02;100.00;97999.78;6099309;19;20006;-74
2023/11/07 09:10:29;;;;;;;2.90;1.10;;;;;;;9.00;100.00;97991.06;6099452;19;20015;-74
2023/11/07 09:12:29;;;;;;;2.08;0.90;;;;;;;8.96;100.00;97996.56;6098335;19;20419;-74
2023/11/07 09:14:29;;;;;;;1.13;1.00;;;;;;;8.96;100.00;97999.31;6099717;19;20015;-74
2023/11/07 09:16:30;;;;;;;1.13;0.90;;;;;;;8.99;100.00;98009.59;6097706;19;20351;-74
2023/11/07 09:18:30;;;;;;;1.10;1.00;;;;;;;9.02;100.00;98002.53;6101797;19;20006;-74
2023/11/07 09:20:30;;;;;;;1.30;0.98;;;;;;;9.02;100.00;98010.81;6104480;19;20383;-74
2023/11/07 09:22:31;;;;;;;1.13;0.90;;;;;;;9.06;100.00;98016.38;6104979;19;20022;-74
2023/11/07 09:24:32;;;;;;;2.30;1.25;;;;;;;9.09;100.00;98010.88;6104868;19;20085;-74
2023/11/07 09:26:33;;;;;;;1.42;1.00;;;;;;;9.12;100.00;98012.09;6103018;19;20458;-74
2023/11/07 09:28:33;;;;;;;1.80;1.10;;;;;;;9.12;100.00;98012.09;6104660;19;20122;-74
2023/11/07 09:30:33;;;;;;;1.25;1.00;;;;;;;9.14;100.00;98016.06;6104810;19;20013;-74